Grandview on Hudson, New York
Current Conditions -  °F | °C
As of 8:56 PM on Wednesday 26 Nov 2014 (Local Time) from KHPN Reporting Station
Light Snow Light Snow  
Wind Chill: 21°   Ceiling: 800
Heat Index: 33°   Visibility: 1.5mi
Dew Point: 30°   Wind: 23mph
Humidity: 89%   Direction: 340°NNW
Pressure: 29.76"   Gusts: 31mph
Location:  41.0938°N, 73.9254°W
Report Text: KHPN 270156Z 34020G27KT 1 1/2SM -SN BR OVC008 01/M01 A2976 RMK AO2 PK WND 34027/0155 RAE44SNB44 SLP086 P0001 T00061011
Loading
Personal Weather Stations






























Interactive Weather Map New forecast layout! Learn more

10-Day Weather Forecast

Advertisements
Track Severe Weather on mobile